createdAt,value
2023-04-14T00:00:51.453Z,100.00
2023-04-14T00:03:19.962Z,100.00
2023-04-14T00:05:48.219Z,100.00
2023-04-14T00:08:17.409Z,100.00
2023-04-14T00:10:45.796Z,100.00
2023-04-14T00:13:14.381Z,100.00
2023-04-14T00:15:42.784Z,100.00
2023-04-14T00:18:11.282Z,100.00
2023-04-14T00:20:39.512Z,100.00
2023-04-14T00:23:08.010Z,100.00
2023-04-14T00:25:36.477Z,100.00
2023-04-14T00:28:05.055Z,100.00
2023-04-14T00:30:33.354Z,100.00
2023-04-14T00:33:01.915Z,100.00
2023-04-14T00:35:32.712Z,100.00
2023-04-14T00:38:01.131Z,100.00
2023-04-14T00:40:31.665Z,100.00
2023-04-14T00:43:00.557Z,100.00
2023-04-14T00:45:29.345Z,100.00
2023-04-14T00:47:58.734Z,100.00
2023-04-14T00:50:27.233Z,100.00
2023-04-14T00:52:57.002Z,100.00
2023-04-14T00:55:25.730Z,100.00
2023-04-14T00:57:55.141Z,100.00
2023-04-14T01:00:23.626Z,100.00
2023-04-14T01:02:52.046Z,100.00
2023-04-14T01:05:20.716Z,100.00
2023-04-14T01:07:49.774Z,100.00
2023-04-14T01:10:18.064Z,100.00
2023-04-14T01:13:38.350Z,100.00
2023-04-14T01:16:18.209Z,100.00
2023-04-14T01:18:58.030Z,100.00
2023-04-14T01:21:33.315Z,100.00
2023-04-14T01:24:13.641Z,100.00
2023-04-14T01:26:42.838Z,100.00
2023-04-14T01:29:55.885Z,100.00
2023-04-14T01:32:27.648Z,100.00
2023-04-14T01:35:05.897Z,100.00
2023-04-14T01:37:41.280Z,100.00
2023-04-14T01:40:14.570Z,100.00
2023-04-14T01:42:59.635Z,100.00
2023-04-14T01:45:34.246Z,100.00
2023-04-14T01:48:03.851Z,100.00
2023-04-14T01:50:34.783Z,100.00
2023-04-14T01:53:07.287Z,100.00
2023-04-14T01:55:38.054Z,100.00
2023-04-14T01:58:07.636Z,100.00
2023-04-14T02:00:37.347Z,100.00
2023-04-14T02:03:06.924Z,100.00
2023-04-14T02:05:38.364Z,100.00
2023-04-14T02:08:12.820Z,100.00
2023-04-14T02:10:46.148Z,100.00
2023-04-14T02:13:17.791Z,100.00
2023-04-14T02:15:49.402Z,100.00
2023-04-14T02:18:23.747Z,100.00
2023-04-14T02:20:54.176Z,100.00
2023-04-14T02:23:22.458Z,100.00
2023-04-14T02:26:05.069Z,100.00
2023-04-14T02:28:38.766Z,100.00
2023-04-14T02:31:11.834Z,100.00
2023-04-14T02:33:41.160Z,100.00
2023-04-14T02:36:24.788Z,100.00
2023-04-14T02:39:04.740Z,100.00
2023-04-14T02:41:33.731Z,100.00
2023-04-14T02:44:10.936Z,100.00
2023-04-14T02:46:42.899Z,100.00
2023-04-14T02:49:14.859Z,100.00
2023-04-14T02:51:46.880Z,100.00
2023-04-14T02:54:19.030Z,100.00
2023-04-14T02:56:49.133Z,100.00
2023-04-14T02:59:18.779Z,100.00
2023-04-14T03:01:55.256Z,100.00
2023-04-14T03:04:25.157Z,100.00
2023-04-14T03:06:55.981Z,100.00
2023-04-14T03:09:25.732Z,100.00
2023-04-14T03:11:56.139Z,100.00
2023-04-14T03:14:27.414Z,100.00
2023-04-14T03:16:57.331Z,100.00
2023-04-14T03:19:28.241Z,100.00
2023-04-14T03:21:58.922Z,100.00
2023-04-14T03:24:31.158Z,100.00
2023-04-14T03:27:05.877Z,100.00
2023-04-14T03:29:43.619Z,100.00
2023-04-14T03:32:13.927Z,100.00
2023-04-14T03:34:43.731Z,100.00
2023-04-14T03:37:18.221Z,100.00
2023-04-14T03:39:50.879Z,100.00
2023-04-14T03:42:25.181Z,100.00
2023-04-14T03:44:57.011Z,100.00
2023-04-14T03:47:28.783Z,100.00
2023-04-14T03:50:04.452Z,100.00
2023-04-14T03:52:36.025Z,100.00
2023-04-14T03:55:07.569Z,100.00
2023-04-14T03:57:37.756Z,100.00
2023-04-14T04:00:09.389Z,100.00
2023-04-14T04:02:46.606Z,100.00
2023-04-14T04:05:16.017Z,100.00
2023-04-14T04:07:46.053Z,100.00
2023-04-14T04:10:16.651Z,100.00
2023-04-14T04:12:47.430Z,100.00
2023-04-14T04:15:16.877Z,100.00
2023-04-14T04:17:49.202Z,100.00
2023-04-14T04:20:19.650Z,100.00
2023-04-14T04:22:52.142Z,100.00
2023-04-14T04:25:20.855Z,100.00
2023-04-14T04:27:57.843Z,100.00
2023-04-14T04:30:28.662Z,100.00
2023-04-14T04:32:57.617Z,100.00
2023-04-14T04:35:29.144Z,100.00
2023-04-14T04:38:01.038Z,100.00
2023-04-14T04:40:36.555Z,100.00
2023-04-14T04:43:05.889Z,100.00
2023-04-14T04:45:56.589Z,100.00
2023-04-14T04:48:25.511Z,100.00
2023-04-14T04:50:53.791Z,100.00
2023-04-14T04:53:21.957Z,100.00
2023-04-14T04:55:50.488Z,100.00
2023-04-14T04:58:18.730Z,100.00
2023-04-14T05:00:47.517Z,100.00
2023-04-14T05:03:16.899Z,97.95
2023-04-14T05:05:45.705Z,94.91
2023-04-14T05:08:15.221Z,95.15
2023-04-14T05:10:44.512Z,91.28
2023-04-14T05:13:12.794Z,86.27
2023-04-14T05:15:40.879Z,85.57
2023-04-14T05:18:09.239Z,79.90
2023-04-14T05:20:37.516Z,78.26
2023-04-14T05:23:05.895Z,76.55
2023-04-14T05:25:36.526Z,75.06
2023-04-14T05:28:04.699Z,72.78
2023-04-14T05:30:32.978Z,69.62
2023-04-14T05:33:01.297Z,68.55
2023-04-14T05:35:29.941Z,65.30
2023-04-14T05:37:58.322Z,63.99
2023-04-14T05:40:27.048Z,62.04
2023-04-14T05:42:57.029Z,59.52
2023-04-14T05:45:25.824Z,59.46
2023-04-14T05:47:54.191Z,59.32
2023-04-14T05:50:22.778Z,57.87
2023-04-14T05:52:52.233Z,57.74
2023-04-14T05:55:21.282Z,58.44
2023-04-14T05:57:49.656Z,60.16
2023-04-14T06:00:18.644Z,61.01
2023-04-14T06:02:47.085Z,60.40
2023-04-14T06:05:15.831Z,59.54
2023-04-14T06:07:44.334Z,58.01
2023-04-14T06:10:13.339Z,57.15
2023-04-14T06:12:41.532Z,56.88
2023-04-14T06:15:10.354Z,56.83
2023-04-14T06:17:40.020Z,56.68
2023-04-14T06:20:09.369Z,54.45
2023-04-14T06:22:37.643Z,54.02
2023-04-14T06:25:06.639Z,52.73
2023-04-14T06:27:35.020Z,50.95
2023-04-14T06:30:03.856Z,50.31
2023-04-14T06:32:32.112Z,49.50
2023-04-14T06:35:01.289Z,48.91
2023-04-14T06:37:29.554Z,48.31
2023-04-14T06:39:58.140Z,49.10
2023-04-14T06:42:26.513Z,48.89
2023-04-14T06:44:55.012Z,48.85
2023-04-14T06:47:23.844Z,48.03
2023-04-14T06:49:52.276Z,48.34
2023-04-14T06:52:20.550Z,46.99
2023-04-14T06:54:48.820Z,46.64
2023-04-14T06:57:17.229Z,45.92
2023-04-14T06:59:46.714Z,46.09
2023-04-14T07:02:15.276Z,46.28
2023-04-14T07:04:43.912Z,44.67
2023-04-14T07:07:14.520Z,43.01
2023-04-14T07:09:43.758Z,42.22
2023-04-14T07:12:16.050Z,42.73
2023-04-14T07:14:51.237Z,42.47
2023-04-14T07:17:20.473Z,41.70
2023-04-14T07:19:48.689Z,41.59
2023-04-14T07:22:17.275Z,42.47
2023-04-14T07:24:45.653Z,42.54
2023-04-14T07:27:15.751Z,43.54
2023-04-14T07:29:44.262Z,43.16
2023-04-14T07:32:13.588Z,43.31
2023-04-14T07:34:44.153Z,42.60
2023-04-14T07:37:12.363Z,41.39
2023-04-14T07:39:41.182Z,42.82
2023-04-14T07:42:09.524Z,42.77
2023-04-14T07:44:38.228Z,43.30
2023-04-14T07:47:06.589Z,44.28
2023-04-14T07:49:35.654Z,44.95
2023-04-14T07:52:03.965Z,44.75
2023-04-14T07:54:32.347Z,45.43
2023-04-14T07:57:01.055Z,43.64
2023-04-14T07:59:29.442Z,43.85
2023-04-14T08:01:58.725Z,43.78
2023-04-14T08:04:27.476Z,44.19
2023-04-14T08:06:55.756Z,44.05
2023-04-14T08:09:24.052Z,44.63
2023-04-14T08:11:52.416Z,45.12
2023-04-14T08:14:21.321Z,45.87
2023-04-14T08:16:49.746Z,45.98
2023-04-14T08:19:18.078Z,45.54
2023-04-14T08:21:46.353Z,44.72
2023-04-14T08:24:14.737Z,43.84
2023-04-14T08:26:42.906Z,42.74
2023-04-14T08:29:13.642Z,43.65
2023-04-14T08:31:41.851Z,42.99
2023-04-14T08:34:10.096Z,44.24
2023-04-14T08:36:38.880Z,43.85
2023-04-14T08:39:07.569Z,44.33
2023-04-14T08:41:39.017Z,43.62
2023-04-14T08:44:08.087Z,44.17
2023-04-14T08:46:36.674Z,44.27
2023-04-14T08:49:17.467Z,45.47
2023-04-14T08:51:47.452Z,46.37
2023-04-14T08:54:17.142Z,46.69
2023-04-14T08:56:46.689Z,47.14
2023-04-14T08:59:15.186Z,48.30
2023-04-14T09:01:44.078Z,49.49
2023-04-14T09:04:14.655Z,50.73
2023-04-14T09:06:43.295Z,50.22
2023-04-14T09:09:11.673Z,48.28
2023-04-14T09:11:41.547Z,47.02
2023-04-14T09:14:11.637Z,48.13
2023-04-14T09:16:39.956Z,47.11
2023-04-14T09:19:09.400Z,46.32
2023-04-14T09:21:53.406Z,44.99
2023-04-14T09:24:34.153Z,45.29
2023-04-14T09:27:05.350Z,44.95
2023-04-14T09:29:34.354Z,44.91
2023-04-14T09:32:04.200Z,44.57
2023-04-14T09:34:32.833Z,44.16
2023-04-14T09:37:09.815Z,42.19
2023-04-14T09:39:49.413Z,41.13
2023-04-14T09:42:18.393Z,41.47
2023-04-14T09:44:57.936Z,41.20
2023-04-14T09:47:26.968Z,41.91
2023-04-14T09:49:59.073Z,42.88
2023-04-14T09:52:38.602Z,44.10
2023-04-14T09:55:16.969Z,45.40
2023-04-14T09:57:51.949Z,45.68
2023-04-14T10:00:22.321Z,46.75
2023-04-14T10:02:51.217Z,46.98
2023-04-14T10:05:21.183Z,46.34
2023-04-14T10:07:49.560Z,45.67
2023-04-14T10:10:18.334Z,44.47
2023-04-14T10:12:47.131Z,43.68
2023-04-14T10:15:18.518Z,43.36
2023-04-14T10:17:47.603Z,44.30
2023-04-14T10:20:17.414Z,44.47
2023-04-14T10:22:47.000Z,44.47
2023-04-14T10:25:15.790Z,45.22
2023-04-14T10:27:45.529Z,44.43
2023-04-14T10:30:13.986Z,44.96
2023-04-14T10:32:44.859Z,45.85
2023-04-14T10:35:18.688Z,46.90
2023-04-14T10:37:52.156Z,47.71
2023-04-14T10:40:22.827Z,48.04
2023-04-14T10:42:55.759Z,48.52
2023-04-14T10:45:24.329Z,49.37
2023-04-14T10:47:53.273Z,50.05
2023-04-14T10:50:24.318Z,50.23
2023-04-14T10:52:56.546Z,50.83
2023-04-14T10:55:26.602Z,51.22
2023-04-14T10:58:09.057Z,49.81
2023-04-14T11:00:38.753Z,50.03
2023-04-14T11:03:11.951Z,49.20
2023-04-14T11:05:51.718Z,48.66
2023-04-14T11:08:26.824Z,49.45
2023-04-14T11:11:05.212Z,49.40
2023-04-14T11:13:35.032Z,49.57
2023-04-14T11:16:08.200Z,49.86
2023-04-14T11:18:46.373Z,49.81
2023-04-14T11:21:29.915Z,50.21
2023-04-14T11:23:59.467Z,51.01
2023-04-14T11:26:28.107Z,51.17
2023-04-14T11:28:56.905Z,50.01
2023-04-14T11:31:27.855Z,49.83
2023-04-14T11:33:57.041Z,49.33
2023-04-14T11:36:26.067Z,48.72
2023-04-14T11:38:54.498Z,48.72
2023-04-14T11:41:25.970Z,47.37
2023-04-14T11:43:54.532Z,47.19
2023-04-14T11:46:23.522Z,46.91
2023-04-14T11:48:56.162Z,46.91
2023-04-14T11:51:30.575Z,47.40
2023-04-14T11:54:00.541Z,47.54
2023-04-14T11:56:30.754Z,48.04
2023-04-14T11:59:03.671Z,48.74
2023-04-14T12:01:34.138Z,49.54
2023-04-14T12:04:03.361Z,50.32
2023-04-14T12:06:36.421Z,51.03
2023-04-14T12:09:09.149Z,52.36
2023-04-14T12:11:37.339Z,53.58
2023-04-14T12:14:06.032Z,54.35
2023-04-14T12:16:35.258Z,55.15
2023-04-14T12:19:04.916Z,55.44
2023-04-14T12:21:34.117Z,55.85
2023-04-14T12:24:03.908Z,55.60
2023-04-14T12:26:32.768Z,55.06
2023-04-14T12:29:01.634Z,54.76
2023-04-14T12:31:30.748Z,53.00
2023-04-14T12:34:03.821Z,52.90
2023-04-14T12:36:48.812Z,52.63
2023-04-14T12:39:24.645Z,52.67
2023-04-14T12:41:53.922Z,52.64
2023-04-14T12:44:24.547Z,51.74
2023-04-14T12:46:53.755Z,51.35
2023-04-14T12:49:33.393Z,51.37
2023-04-14T12:52:02.100Z,51.09
2023-04-14T12:54:52.887Z,51.43
2023-04-14T12:57:22.356Z,51.66
2023-04-14T12:59:50.907Z,52.10
2023-04-14T13:02:19.586Z,52.02
2023-04-14T13:04:48.343Z,52.34
2023-04-14T13:07:16.651Z,52.36
2023-04-14T13:09:44.768Z,52.64
2023-04-14T13:12:12.990Z,52.83
2023-04-14T13:14:41.449Z,52.88
2023-04-14T13:17:09.988Z,53.12
2023-04-14T13:19:38.924Z,53.71
2023-04-14T13:22:07.303Z,53.84
2023-04-14T13:24:36.613Z,54.00
2023-04-14T13:27:04.892Z,54.35
2023-04-14T13:29:34.326Z,54.51
2023-04-14T13:32:02.632Z,55.52
2023-04-14T13:34:31.158Z,56.50
2023-04-14T13:36:59.645Z,56.21
2023-04-14T13:39:28.529Z,56.43
2023-04-14T13:41:56.799Z,56.72
2023-04-14T13:44:25.489Z,57.49
2023-04-14T13:46:55.505Z,57.36
2023-04-14T13:49:23.786Z,57.23
2023-04-14T13:51:52.057Z,57.54
2023-04-14T13:54:20.438Z,57.77
2023-04-14T13:56:49.852Z,58.29
2023-04-14T13:59:18.435Z,58.95
2023-04-14T14:01:47.438Z,59.17
2023-04-14T14:04:16.770Z,59.97
2023-04-14T14:06:45.938Z,60.27
2023-04-14T14:09:14.203Z,60.40
2023-04-14T14:11:44.571Z,60.41
2023-04-14T14:14:13.109Z,60.72
2023-04-14T14:16:41.897Z,60.73
2023-04-14T14:19:15.129Z,61.26
2023-04-14T14:21:44.889Z,61.59
2023-04-14T14:24:14.128Z,61.43
2023-04-14T14:26:42.265Z,61.05
2023-04-14T14:29:10.629Z,61.51
2023-04-14T14:31:38.898Z,61.73
2023-04-14T14:34:07.604Z,61.59
2023-04-14T14:36:38.852Z,61.89
2023-04-14T14:39:07.538Z,61.85
2023-04-14T14:41:35.737Z,62.29
2023-04-14T14:44:04.680Z,62.33
2023-04-14T14:46:34.278Z,62.59
2023-04-14T14:49:02.688Z,62.74
2023-04-14T14:51:31.909Z,62.78
2023-04-14T14:54:09.370Z,62.62
2023-04-14T14:56:38.721Z,60.00
2023-04-14T14:59:08.778Z,57.06
2023-04-14T15:01:37.404Z,55.18
2023-04-14T15:04:06.687Z,53.91
2023-04-14T15:06:35.917Z,52.94
2023-04-14T15:09:05.628Z,53.67
2023-04-14T15:11:34.049Z,54.03
2023-04-14T15:14:03.551Z,53.26
2023-04-14T15:16:32.305Z,53.96
2023-04-14T15:19:00.574Z,54.61
2023-04-14T15:21:29.147Z,54.81
2023-04-14T15:23:57.322Z,54.66
2023-04-14T15:26:26.094Z,54.98
2023-04-14T15:28:55.448Z,55.58
2023-04-14T15:31:24.135Z,55.41
2023-04-14T15:33:52.691Z,55.96
2023-04-14T15:36:22.470Z,56.28
2023-04-14T15:38:50.951Z,56.54
2023-04-14T15:41:19.679Z,56.86
2023-04-14T15:43:50.880Z,57.34
2023-04-14T15:46:20.131Z,57.41
2023-04-14T15:48:48.698Z,57.68
2023-04-14T15:51:16.967Z,57.94
2023-04-14T15:53:45.142Z,58.08
2023-04-14T15:56:14.236Z,58.18
2023-04-14T15:58:43.130Z,58.50
2023-04-14T16:01:12.573Z,58.89
2023-04-14T16:03:41.795Z,59.11
2023-04-14T16:06:10.329Z,59.55
2023-04-14T16:08:39.044Z,59.73
2023-04-14T16:11:08.012Z,59.93
2023-04-14T16:13:37.318Z,60.16
2023-04-14T16:16:06.729Z,60.28
2023-04-14T16:18:36.935Z,60.64
2023-04-14T16:21:05.713Z,60.84
2023-04-14T16:23:36.690Z,61.00
2023-04-14T16:26:05.239Z,61.45
2023-04-14T16:28:34.065Z,61.53
2023-04-14T16:31:03.325Z,61.84
2023-04-14T16:33:34.480Z,62.02
2023-04-14T16:36:07.337Z,62.38
2023-04-14T16:38:35.949Z,63.48
2023-04-14T16:41:04.532Z,65.64
2023-04-14T16:43:33.326Z,66.74
2023-04-14T16:46:05.551Z,67.39
2023-04-14T16:48:35.880Z,67.98
2023-04-14T16:51:09.256Z,67.97
2023-04-14T16:53:38.995Z,66.86
2023-04-14T16:56:09.070Z,65.65
2023-04-14T16:58:39.072Z,63.36
2023-04-14T17:01:07.976Z,62.74
2023-04-14T17:03:37.019Z,62.50
2023-04-14T17:06:05.721Z,62.41
2023-04-14T17:08:34.600Z,61.48
2023-04-14T17:11:03.597Z,61.11
2023-04-14T17:13:33.202Z,61.26
2023-04-14T17:16:08.384Z,61.99
2023-04-14T17:18:38.567Z,62.35
2023-04-14T17:21:07.750Z,62.66
2023-04-14T17:23:37.803Z,62.27
2023-04-14T17:26:06.508Z,61.62
2023-04-14T17:28:36.063Z,61.62
2023-04-14T17:31:13.352Z,61.77
2023-04-14T17:33:43.113Z,61.91
2023-04-14T17:36:14.459Z,61.18
2023-04-14T17:38:43.797Z,60.99
2023-04-14T17:41:14.149Z,61.14
2023-04-14T17:43:42.719Z,61.66
2023-04-14T17:46:11.971Z,62.55
2023-04-14T17:48:40.714Z,63.54
2023-04-14T17:51:09.106Z,64.72
2023-04-14T17:53:37.770Z,66.88
2023-04-14T17:56:07.919Z,70.87
2023-04-14T17:58:36.738Z,73.27
2023-04-14T18:01:05.281Z,75.61
2023-04-14T18:03:33.689Z,76.01
2023-04-14T18:06:04.189Z,78.58
2023-04-14T18:08:32.520Z,78.99
2023-04-14T18:11:01.033Z,81.44
2023-04-14T18:13:30.127Z,83.45
2023-04-14T18:15:58.302Z,84.77
2023-04-14T18:18:29.275Z,84.21
2023-04-14T18:20:58.448Z,85.29
2023-04-14T18:23:26.844Z,86.93
2023-04-14T18:28:36.010Z,86.61
2023-04-14T18:31:05.009Z,86.11
2023-04-14T18:33:33.988Z,85.72
2023-04-14T18:36:03.498Z,86.38
2023-04-14T18:38:32.386Z,87.68
2023-04-14T18:41:03.725Z,87.11
2023-04-14T18:43:33.384Z,87.44
2023-04-14T18:46:02.631Z,87.48
2023-04-14T18:48:33.582Z,87.66
2023-04-14T18:51:08.124Z,88.37
2023-04-14T18:53:37.276Z,87.90
2023-04-14T18:56:06.777Z,87.31
2023-04-14T18:58:35.364Z,89.21
2023-04-14T19:01:03.893Z,88.58
2023-04-14T19:03:32.508Z,87.52
2023-04-14T19:06:01.771Z,87.02
2023-04-14T19:08:30.821Z,87.53
2023-04-14T19:10:59.510Z,87.70
2023-04-14T19:13:27.907Z,87.59
2023-04-14T19:16:09.263Z,86.73
2023-04-14T19:18:37.451Z,86.35
2023-04-14T19:21:10.042Z,86.29
2023-04-14T19:23:39.991Z,86.44
2023-04-14T19:26:10.469Z,86.14
2023-04-14T19:28:40.398Z,86.73
2023-04-14T19:31:08.856Z,86.06
2023-04-14T19:33:38.993Z,85.89
2023-04-14T19:36:18.972Z,85.92
2023-04-14T19:38:47.437Z,85.95
2023-04-14T19:41:16.126Z,85.72
2023-04-14T19:43:45.915Z,85.34
2023-04-14T19:46:14.333Z,85.41
2023-04-14T19:48:42.791Z,85.89
2023-04-14T19:51:13.004Z,86.76
2023-04-14T19:53:41.481Z,86.91
2023-04-14T19:56:09.971Z,86.22
2023-04-14T19:58:38.477Z,86.19
2023-04-14T20:01:06.834Z,86.39
2023-04-14T20:03:35.248Z,86.48
2023-04-14T20:06:03.688Z,86.51
2023-04-14T20:08:32.506Z,86.35
2023-04-14T20:11:00.667Z,86.60
2023-04-14T20:13:34.900Z,87.96
2023-04-14T20:16:03.041Z,88.24
2023-04-14T20:18:32.753Z,88.36
2023-04-14T20:21:01.052Z,89.60
2023-04-14T20:23:29.921Z,90.07
2023-04-14T20:25:58.405Z,91.57
2023-04-14T20:28:26.792Z,91.27
2023-04-14T20:30:56.339Z,91.34
2023-04-14T20:33:24.926Z,91.23
2023-04-14T20:35:54.184Z,91.74
2023-04-14T20:38:23.078Z,91.56
2023-04-14T20:40:51.342Z,92.75
2023-04-14T20:43:20.057Z,92.88
2023-04-14T20:45:50.001Z,92.67
2023-04-14T20:48:19.545Z,93.47
2023-04-14T20:50:49.864Z,92.54
2023-04-14T20:53:21.330Z,92.54
2023-04-14T20:55:51.129Z,93.50
2023-04-14T20:58:19.640Z,93.86
2023-04-14T21:00:48.302Z,93.52
2023-04-14T21:03:17.243Z,92.79
2023-04-14T21:05:46.449Z,92.83
2023-04-14T21:08:14.898Z,92.86
2023-04-14T21:11:02.285Z,93.20
2023-04-14T21:15:25.084Z,93.85
2023-04-14T21:16:19.859Z,94.32
2023-04-14T21:18:47.923Z,94.18
2023-04-14T21:21:16.404Z,94.26
2023-04-14T21:23:44.686Z,95.72
2023-04-14T21:26:13.674Z,96.63
2023-04-14T21:28:42.088Z,96.86
2023-04-14T21:31:11.551Z,97.72
2023-04-14T21:33:41.916Z,97.48
2023-04-14T21:36:10.950Z,97.96
2023-04-14T21:38:39.660Z,97.96
2023-04-14T21:41:08.215Z,98.00
2023-04-14T21:43:38.830Z,98.93
2023-04-14T21:46:07.518Z,99.11
2023-04-14T21:48:36.053Z,98.73
2023-04-14T21:51:04.427Z,99.43
2023-04-14T21:53:33.212Z,99.26
2023-04-14T21:56:09.855Z,99.42
2023-04-14T21:58:40.332Z,99.57
2023-04-14T22:01:12.635Z,99.53
2023-04-14T22:03:41.754Z,99.52
2023-04-14T22:06:11.602Z,99.17
2023-04-14T22:08:41.141Z,99.33
2023-04-14T22:11:09.686Z,99.37
2023-04-14T22:13:38.713Z,99.75
2023-04-14T22:16:07.986Z,99.92
2023-04-14T22:18:39.022Z,99.91
2023-04-14T22:21:10.783Z,99.84
2023-04-14T22:23:40.289Z,99.70
2023-04-14T22:26:09.327Z,99.59
2023-04-14T22:28:37.967Z,99.65
2023-04-14T22:31:06.532Z,99.59
2023-04-14T22:33:35.965Z,100.00
2023-04-14T22:36:07.303Z,100.00
2023-04-14T22:38:36.095Z,100.00
2023-04-14T22:41:04.571Z,100.00
2023-04-14T22:43:32.742Z,100.00
2023-04-14T22:46:00.881Z,100.00
2023-04-14T22:48:29.099Z,100.00
2023-04-14T22:50:57.573Z,100.00
2023-04-14T22:53:25.988Z,100.00
2023-04-14T22:55:54.331Z,100.00
2023-04-14T22:58:24.248Z,100.00
2023-04-14T23:00:52.829Z,100.00
2023-04-14T23:03:21.696Z,100.00
2023-04-14T23:05:52.042Z,100.00
2023-04-14T23:08:20.536Z,100.00
2023-04-14T23:10:48.803Z,100.00
2023-04-14T23:13:17.080Z,100.00
2023-04-14T23:15:45.714Z,100.00
2023-04-14T23:18:14.561Z,100.00
2023-04-14T23:20:43.357Z,100.00
2023-04-14T23:23:12.404Z,100.00
2023-04-14T23:25:41.742Z,100.00
2023-04-14T23:28:10.217Z,100.00
2023-04-14T23:30:38.565Z,100.00
2023-04-14T23:33:06.977Z,100.00
2023-04-14T23:35:36.075Z,100.00
2023-04-14T23:38:04.256Z,100.00
2023-04-14T23:40:34.168Z,100.00
2023-04-14T23:43:02.857Z,100.00
2023-04-14T23:45:37.322Z,100.00
2023-04-14T23:48:06.808Z,100.00
2023-04-14T23:51:01.212Z,100.00
2023-04-14T23:53:24.629Z,100.00
2023-04-14T23:55:53.632Z,100.00
2023-04-14T23:58:26.717Z,100.00
